createdAt,value
2019-02-26T00:01:26.222Z,7.44
2019-02-26T00:03:55.363Z,7.40
2019-02-26T00:06:25.344Z,7.36
2019-02-26T00:08:58.213Z,7.20
2019-02-26T00:11:26.708Z,7.16
2019-02-26T00:13:57.334Z,7.20
2019-02-26T00:16:26.340Z,7.12
2019-02-26T00:18:56.275Z,7.12
2019-02-26T00:21:26.517Z,7.15
2019-02-26T00:23:56.137Z,7.09
2019-02-26T00:26:25.006Z,7.07
2019-02-26T00:28:53.891Z,7.10
2019-02-26T00:31:24.414Z,7.10
2019-02-26T00:33:53.577Z,7.04
2019-02-26T00:36:22.437Z,6.95
2019-02-26T00:38:51.314Z,6.90
2019-02-26T00:41:24.425Z,6.90
2019-02-26T00:43:55.033Z,6.80
2019-02-26T00:46:24.259Z,6.72
2019-02-26T00:48:53.396Z,6.76
2019-02-26T00:51:23.120Z,6.63
2019-02-26T00:53:54.738Z,6.69
2019-02-26T00:56:25.148Z,6.62
2019-02-26T00:58:52.988Z,6.63
2019-02-26T01:01:23.790Z,6.61
2019-02-26T01:03:52.461Z,6.63
2019-02-26T01:06:22.540Z,6.65
2019-02-26T01:08:51.926Z,6.59
2019-02-26T01:11:21.609Z,6.65
2019-02-26T01:13:52.740Z,6.66
2019-02-26T01:16:21.791Z,6.60
2019-02-26T01:18:52.819Z,6.68
2019-02-26T01:21:24.116Z,6.53
2019-02-26T01:23:52.109Z,6.47
2019-02-26T01:26:20.711Z,6.49
2019-02-26T01:28:51.062Z,6.49
2019-02-26T01:31:22.294Z,6.51
2019-02-26T01:33:52.879Z,6.47
2019-02-26T01:36:23.717Z,6.44
2019-02-26T01:38:53.155Z,6.38
2019-02-26T01:41:24.509Z,6.37
2019-02-26T01:43:53.183Z,6.27
2019-02-26T01:46:21.938Z,6.23
2019-02-26T01:48:50.573Z,6.23
2019-02-26T01:51:21.777Z,6.32
2019-02-26T01:53:51.467Z,6.25
2019-02-26T01:56:20.558Z,6.13
2019-02-26T01:58:56.387Z,6.12
2019-02-26T02:01:23.278Z,6.12
2019-02-26T02:03:53.085Z,6.11
2019-02-26T02:06:21.444Z,6.16
2019-02-26T02:08:52.449Z,6.25
2019-02-26T02:11:23.880Z,6.28
2019-02-26T02:13:52.000Z,6.28
2019-02-26T02:16:22.134Z,6.19
2019-02-26T02:18:53.542Z,6.28
2019-02-26T02:21:23.718Z,6.23
2019-02-26T02:23:52.988Z,6.28
2019-02-26T02:26:21.815Z,6.25
2019-02-26T02:28:50.691Z,6.25
2019-02-26T02:31:22.029Z,6.30
2019-02-26T02:33:50.194Z,6.33
2019-02-26T02:36:22.541Z,6.31
2019-02-26T02:38:49.704Z,6.31
2019-02-26T02:41:18.331Z,6.27
2019-02-26T02:43:47.706Z,6.26
2019-02-26T02:46:16.597Z,6.27
2019-02-26T02:48:45.454Z,6.27
2019-02-26T02:51:14.336Z,6.15
2019-02-26T02:53:45.282Z,6.06
2019-02-26T02:56:15.249Z,6.05
2019-02-26T02:58:46.418Z,6.04
2019-02-26T03:01:16.634Z,6.03
2019-02-26T03:03:47.767Z,5.96
2019-02-26T03:06:15.979Z,5.80
2019-02-26T03:08:45.767Z,5.98
2019-02-26T03:11:15.199Z,5.98
2019-02-26T03:13:45.860Z,5.96
2019-02-26T03:16:15.949Z,6.08
2019-02-26T03:18:44.567Z,6.14
2019-02-26T03:21:13.459Z,6.03
2019-02-26T03:23:43.497Z,6.01
2019-02-26T03:26:15.157Z,6.01
2019-02-26T03:28:44.595Z,5.83
2019-02-26T03:31:14.135Z,5.90
2019-02-26T03:33:42.987Z,5.90
2019-02-26T03:36:13.895Z,5.99
2019-02-26T03:38:44.142Z,6.08
2019-02-26T03:41:12.408Z,6.18
2019-02-26T03:43:41.827Z,6.00
2019-02-26T03:46:10.442Z,6.23
2019-02-26T03:48:39.305Z,6.22
2019-02-26T03:51:08.445Z,6.22
2019-02-26T03:53:39.242Z,6.19
2019-02-26T03:56:11.738Z,6.27
2019-02-26T03:58:38.733Z,6.34
2019-02-26T04:01:10.257Z,6.12
2019-02-26T04:03:39.650Z,6.14
2019-02-26T04:06:10.098Z,5.94
2019-02-26T04:08:39.730Z,5.88
2019-02-26T04:11:08.429Z,5.97
2019-02-26T04:13:37.583Z,6.08
2019-02-26T04:16:06.702Z,5.97
2019-02-26T04:18:35.338Z,6.23
2019-02-26T04:21:06.021Z,6.02
2019-02-26T04:23:36.157Z,5.86
2019-02-26T04:26:26.212Z,5.98
2019-02-26T04:29:11.054Z,6.00
2019-02-26T04:32:15.197Z,6.06
2019-02-26T04:35:14.723Z,6.02
2019-02-26T04:38:11.355Z,6.11
2019-02-26T04:41:12.423Z,6.10
2019-02-26T04:44:12.311Z,6.08
2019-02-26T04:47:05.937Z,5.74
2019-02-26T04:49:36.787Z,5.71
2019-02-26T04:52:05.635Z,5.78
2019-02-26T04:54:36.814Z,5.95
2019-02-26T04:57:06.176Z,5.89
2019-02-26T04:59:37.975Z,5.76
2019-02-26T05:02:06.041Z,5.71
2019-02-26T05:04:36.992Z,5.74
2019-02-26T05:07:09.221Z,5.80
2019-02-26T05:09:35.991Z,5.77
2019-02-26T05:12:04.729Z,5.61
2019-02-26T05:14:33.331Z,5.64
2019-02-26T05:17:02.211Z,5.64
2019-02-26T05:19:31.126Z,5.66
2019-02-26T05:22:01.628Z,5.69
2019-02-26T05:24:30.319Z,5.49
2019-02-26T05:26:58.974Z,5.41
2019-02-26T05:29:27.863Z,5.38
2019-02-26T05:31:58.870Z,5.38
2019-02-26T05:34:27.106Z,5.45
2019-02-26T05:36:56.050Z,5.63
2019-02-26T05:39:26.752Z,5.63
2019-02-26T05:41:57.998Z,5.54
2019-02-26T05:44:26.613Z,5.54
2019-02-26T05:46:56.696Z,5.49
2019-02-26T05:49:25.626Z,5.62
2019-02-26T05:51:56.722Z,5.71
2019-02-26T05:54:25.339Z,5.69
2019-02-26T05:56:54.218Z,5.69
2019-02-26T05:59:23.108Z,5.52
2019-02-26T06:01:54.814Z,5.52
2019-02-26T06:04:22.832Z,5.48
2019-02-26T06:06:55.574Z,5.48
2019-02-26T06:09:25.257Z,5.60
2019-02-26T06:11:52.480Z,5.60
2019-02-26T06:14:21.108Z,5.22
2019-02-26T06:16:51.358Z,5.34
2019-02-26T06:19:40.189Z,5.51
2019-02-26T06:22:14.509Z,5.66
2019-02-26T06:24:40.251Z,5.66
2019-02-26T06:27:13.041Z,5.65
2019-02-26T06:29:39.700Z,5.75
2019-02-26T06:32:12.016Z,5.72
2019-02-26T06:34:41.215Z,5.54
2019-02-26T06:37:17.534Z,5.63
2019-02-26T06:39:46.210Z,5.63
2019-02-26T06:42:14.827Z,5.67
2019-02-26T06:44:46.243Z,5.86
2019-02-26T06:47:14.126Z,5.71
2019-02-26T06:49:43.853Z,5.65
2019-02-26T06:52:16.290Z,5.82
2019-02-26T06:54:47.785Z,5.83
2019-02-26T06:57:14.870Z,5.85
2019-02-26T06:59:43.736Z,5.72
2019-02-26T07:02:12.646Z,5.69
2019-02-26T07:04:41.786Z,5.69
2019-02-26T07:07:14.127Z,5.92
2019-02-26T07:09:42.060Z,5.94
2019-02-26T07:12:11.336Z,5.94
2019-02-26T07:14:40.198Z,6.00
2019-02-26T07:17:09.206Z,6.00
2019-02-26T07:19:38.134Z,6.09
2019-02-26T07:22:08.312Z,6.06
2019-02-26T07:24:38.601Z,6.08
2019-02-26T07:27:09.118Z,6.16
2019-02-26T07:29:40.087Z,6.16
2019-02-26T07:32:09.436Z,6.30
2019-02-26T07:34:39.940Z,6.23
2019-02-26T07:37:09.335Z,6.34
2019-02-26T07:39:40.239Z,6.34
2019-02-26T07:42:11.474Z,6.25
2019-02-26T07:44:40.509Z,6.25
2019-02-26T07:47:11.254Z,6.18
2019-02-26T07:49:40.177Z,6.18
2019-02-26T07:52:08.890Z,6.08
2019-02-26T07:54:39.693Z,6.07
2019-02-26T07:57:08.445Z,6.13
2019-02-26T07:59:39.857Z,6.29
2019-02-26T08:02:08.859Z,6.42
2019-02-26T08:04:41.171Z,6.51
2019-02-26T08:07:09.801Z,6.64
2019-02-26T08:09:38.789Z,6.83
2019-02-26T08:12:10.785Z,6.99
2019-02-26T08:14:41.062Z,6.98
2019-02-26T08:17:09.218Z,6.82
2019-02-26T08:19:43.719Z,6.90
2019-02-26T08:22:10.945Z,7.04
2019-02-26T08:24:39.979Z,7.07
2019-02-26T08:27:11.033Z,7.14
2019-02-26T08:29:39.746Z,7.01
2019-02-26T08:32:13.783Z,7.10
2019-02-26T08:34:40.251Z,7.19
2019-02-26T08:37:09.033Z,7.13
2019-02-26T08:39:38.685Z,6.95
2019-02-26T08:42:09.030Z,7.00
2019-02-26T08:44:37.658Z,7.28
2019-02-26T08:47:11.180Z,7.72
2019-02-26T08:49:38.294Z,7.95
2019-02-26T08:52:07.821Z,8.07
2019-02-26T08:54:36.535Z,8.33
2019-02-26T08:57:05.477Z,8.55
2019-02-26T08:59:34.783Z,8.98
2019-02-26T09:02:03.695Z,9.20
2019-02-26T09:04:32.339Z,9.30
2019-02-26T09:07:02.089Z,9.36
2019-02-26T09:09:32.778Z,8.82
2019-02-26T09:12:03.223Z,9.15
2019-02-26T09:14:37.287Z,8.69
2019-02-26T09:17:04.698Z,8.20
2019-02-26T09:19:35.419Z,8.05
2019-02-26T09:22:04.687Z,8.65
2019-02-26T09:24:34.306Z,8.77
2019-02-26T09:27:05.017Z,8.71
2019-02-26T09:29:34.351Z,8.57
2019-02-26T09:32:06.667Z,8.48
2019-02-26T09:34:39.833Z,8.40
2019-02-26T09:37:08.124Z,8.75
2019-02-26T09:39:38.936Z,8.80
2019-02-26T09:42:09.247Z,8.93
2019-02-26T09:44:38.033Z,8.94
2019-02-26T09:47:07.593Z,8.44
2019-02-26T09:49:36.564Z,8.37
2019-02-26T09:52:06.522Z,8.23
2019-02-26T09:54:40.432Z,8.37
2019-02-26T09:57:06.753Z,8.63
2019-02-26T09:59:36.588Z,8.94
2019-02-26T10:02:06.297Z,8.73
2019-02-26T10:04:35.802Z,8.54
2019-02-26T10:07:08.869Z,8.63
2019-02-26T10:09:37.562Z,8.50
2019-02-26T10:12:10.663Z,8.30
2019-02-26T10:14:38.687Z,8.53
2019-02-26T10:17:09.289Z,8.53
2019-02-26T10:19:40.612Z,8.41
2019-02-26T10:22:10.814Z,8.40
2019-02-26T10:24:40.368Z,8.40
2019-02-26T10:27:11.467Z,8.34
2019-02-26T10:29:44.412Z,8.10
2019-02-26T10:32:11.771Z,8.00
2019-02-26T10:34:41.033Z,7.92
2019-02-26T10:37:09.696Z,8.07
2019-02-26T10:39:38.326Z,8.26
2019-02-26T10:42:10.095Z,8.26
2019-02-26T10:44:39.003Z,8.41
2019-02-26T10:47:08.723Z,8.18
2019-02-26T10:49:38.712Z,8.37
2019-02-26T10:52:07.658Z,8.32
2019-02-26T10:54:40.367Z,8.33
2019-02-26T10:57:08.473Z,8.48
2019-02-26T10:59:38.259Z,8.61
2019-02-26T11:02:07.547Z,8.50
2019-02-26T11:04:41.111Z,8.33
2019-02-26T11:07:08.713Z,8.28
2019-02-26T11:09:37.165Z,8.29
2019-02-26T11:12:08.479Z,8.32
2019-02-26T11:14:39.085Z,8.16
2019-02-26T11:17:07.122Z,8.03
2019-02-26T11:19:38.821Z,8.03
2019-02-26T11:22:06.389Z,8.08
2019-02-26T11:24:36.169Z,7.91
2019-02-26T11:27:04.976Z,7.91
2019-02-26T11:29:35.841Z,8.06
2019-02-26T11:32:05.724Z,8.12
2019-02-26T11:34:36.287Z,8.03
2019-02-26T11:37:08.802Z,7.87
2019-02-26T11:39:36.399Z,7.96
2019-02-26T11:42:05.343Z,7.96
2019-02-26T11:44:34.481Z,8.04
2019-02-26T11:47:03.403Z,8.04
2019-02-26T11:49:34.335Z,8.13
2019-02-26T11:52:04.346Z,8.44
2019-02-26T11:54:35.001Z,8.30
2019-02-26T11:57:05.167Z,8.13
2019-02-26T11:59:35.773Z,8.20
2019-02-26T12:02:06.385Z,8.20
2019-02-26T12:04:35.585Z,8.37
2019-02-26T12:07:06.829Z,8.54
2019-02-26T12:09:38.050Z,9.28
2019-02-26T12:12:06.665Z,9.40
2019-02-26T12:14:37.954Z,8.94
2019-02-26T12:17:06.909Z,9.26
2019-02-26T12:19:37.133Z,9.22
2019-02-26T12:22:05.996Z,9.38
2019-02-26T12:24:36.176Z,9.40
2019-02-26T12:27:07.119Z,9.65
2019-02-26T12:29:35.243Z,9.91
2019-02-26T12:32:04.767Z,10.24
2019-02-26T12:34:35.318Z,10.56
2019-02-26T12:37:06.655Z,11.15
2019-02-26T12:39:34.423Z,11.77
2019-02-26T12:42:03.418Z,11.53
2019-02-26T12:44:34.882Z,12.45
2019-02-26T12:47:02.356Z,11.97
2019-02-26T12:49:33.313Z,12.23
2019-02-26T12:52:03.264Z,13.09
2019-02-26T12:54:33.676Z,12.87
2019-02-26T12:57:04.159Z,12.54
2019-02-26T12:59:33.694Z,12.54
2019-02-26T13:02:05.584Z,13.17
2019-02-26T13:04:33.443Z,13.18
2019-02-26T13:07:05.265Z,13.12
2019-02-26T13:09:32.616Z,12.80
2019-02-26T13:12:02.832Z,12.95
2019-02-26T13:14:32.010Z,12.98
2019-02-26T13:17:00.890Z,12.54
2019-02-26T13:19:33.244Z,12.45
2019-02-26T13:22:05.460Z,13.24
2019-02-26T13:24:30.662Z,13.34
2019-02-26T13:26:59.944Z,13.00
2019-02-26T13:29:29.270Z,13.20
2019-02-26T13:31:59.972Z,12.82
2019-02-26T13:34:28.779Z,12.99
2019-02-26T13:36:57.402Z,13.11
2019-02-26T13:39:36.859Z,13.16
2019-02-26T13:42:03.796Z,13.40
2019-02-26T13:44:27.575Z,13.17
2019-02-26T13:46:56.519Z,12.86
2019-02-26T13:49:25.362Z,12.88
2019-02-26T13:51:54.465Z,12.71
2019-02-26T13:54:23.359Z,13.12
2019-02-26T13:56:52.532Z,12.43
2019-02-26T13:59:21.399Z,12.89
2019-02-26T14:01:50.019Z,13.05
2019-02-26T14:04:18.904Z,12.76
2019-02-26T14:06:47.511Z,12.88
2019-02-26T14:09:16.366Z,12.95
2019-02-26T14:11:45.244Z,13.47
2019-02-26T14:14:13.869Z,12.82
2019-02-26T14:16:43.253Z,12.60
2019-02-26T14:19:12.135Z,12.51
2019-02-26T14:21:41.521Z,12.76
2019-02-26T14:24:10.385Z,12.91
2019-02-26T14:26:39.257Z,12.70
2019-02-26T14:29:08.302Z,12.92
2019-02-26T14:31:37.163Z,12.93
2019-02-26T14:34:06.197Z,12.43
2019-02-26T14:36:35.150Z,12.35
2019-02-26T14:39:04.696Z,12.54
2019-02-26T14:41:33.568Z,12.31
2019-02-26T14:44:02.430Z,12.14
2019-02-26T14:46:31.057Z,12.11
2019-02-26T14:49:00.408Z,11.86
2019-02-26T14:51:29.271Z,12.08
2019-02-26T14:53:58.122Z,11.93
2019-02-26T14:56:27.031Z,12.04
2019-02-26T14:58:56.198Z,11.91
2019-02-26T15:01:25.331Z,11.73
2019-02-26T15:03:54.396Z,11.88
2019-02-26T15:06:23.258Z,12.06
2019-02-26T15:08:52.597Z,11.66
2019-02-26T15:11:21.229Z,11.81
2019-02-26T15:13:50.102Z,11.84
2019-02-26T15:16:19.468Z,11.55
2019-02-26T15:18:48.153Z,11.64
2019-02-26T15:21:16.998Z,11.66
2019-02-26T15:23:45.667Z,11.60
2019-02-26T15:26:14.882Z,11.20
2019-02-26T15:28:43.785Z,11.49
2019-02-26T15:31:12.377Z,11.45
2019-02-26T15:33:41.225Z,11.10
2019-02-26T15:36:09.862Z,11.17
2019-02-26T15:38:38.739Z,10.94
2019-02-26T15:41:07.605Z,10.79
2019-02-26T15:43:36.459Z,10.92
2019-02-26T15:46:05.313Z,10.93
2019-02-26T15:48:36.474Z,10.73
2019-02-26T15:51:04.621Z,10.58
2019-02-26T15:53:33.256Z,10.41
2019-02-26T15:56:02.121Z,10.38
2019-02-26T15:58:30.766Z,10.33
2019-02-26T16:00:59.724Z,10.05
2019-02-26T16:03:29.701Z,9.88
2019-02-26T16:05:58.764Z,9.90
2019-02-26T16:08:34.421Z,9.88
2019-02-26T16:10:57.960Z,9.86
2019-02-26T16:13:26.801Z,9.83
2019-02-26T16:15:55.705Z,9.47
2019-02-26T16:18:24.580Z,9.40
2019-02-26T16:20:53.207Z,9.50
2019-02-26T16:23:21.828Z,9.28
2019-02-26T16:25:50.712Z,9.31
2019-02-26T16:28:19.328Z,9.08
2019-02-26T16:30:48.419Z,8.96
2019-02-26T16:33:17.549Z,8.75
2019-02-26T16:35:46.137Z,8.58
2019-02-26T16:38:14.998Z,8.54
2019-02-26T16:40:43.856Z,8.49
2019-02-26T16:43:14.860Z,8.47
2019-02-26T16:45:43.721Z,8.36
2019-02-26T16:48:12.601Z,8.55
2019-02-26T16:50:45.234Z,8.59
2019-02-26T16:53:12.325Z,8.43
2019-02-26T16:55:41.176Z,8.39
2019-02-26T16:58:10.433Z,8.29
2019-02-26T17:00:39.345Z,8.30
2019-02-26T17:03:08.279Z,8.30
2019-02-26T17:05:37.456Z,8.35
2019-02-26T17:08:06.250Z,8.49
2019-02-26T17:10:35.439Z,8.41
2019-02-26T17:13:04.332Z,8.53
2019-02-26T17:15:33.077Z,8.50
2019-02-26T17:18:02.032Z,8.46
2019-02-26T17:20:30.648Z,8.32
2019-02-26T17:22:59.763Z,8.26
2019-02-26T17:25:29.062Z,7.97
2019-02-26T17:27:58.071Z,7.85
2019-02-26T17:30:27.021Z,7.88
2019-02-26T17:32:55.675Z,7.82
2019-02-26T17:35:28.582Z,7.98
2019-02-26T17:37:55.401Z,7.96
2019-02-26T17:40:24.104Z,7.96
2019-02-26T17:42:54.253Z,8.14
2019-02-26T17:45:23.363Z,8.08
2019-02-26T17:47:52.214Z,7.84
2019-02-26T17:50:28.385Z,7.77
2019-02-26T17:52:57.495Z,7.70
2019-02-26T17:55:26.524Z,7.66
2019-02-26T17:57:55.155Z,7.68
2019-02-26T18:00:24.366Z,7.64
2019-02-26T18:02:53.034Z,7.60
2019-02-26T18:05:22.675Z,7.61
2019-02-26T18:07:51.770Z,7.58
2019-02-26T18:10:20.819Z,7.63
2019-02-26T18:12:49.769Z,7.59
2019-02-26T18:15:18.617Z,7.57
2019-02-26T18:17:47.327Z,7.57
2019-02-26T18:20:16.959Z,7.54
2019-02-26T18:22:45.703Z,7.53
2019-02-26T18:25:15.194Z,7.45
2019-02-26T18:27:44.052Z,7.37
2019-02-26T18:30:17.827Z,7.45
2019-02-26T18:32:50.273Z,7.45
2019-02-26T18:35:17.962Z,7.51
2019-02-26T18:37:47.365Z,7.40
2019-02-26T18:40:16.614Z,7.45
2019-02-26T18:42:45.545Z,7.38
2019-02-26T18:45:16.649Z,7.46
2019-02-26T18:47:47.619Z,7.32
2019-02-26T18:50:16.772Z,7.47
2019-02-26T18:52:45.456Z,7.59
2019-02-26T18:55:14.943Z,7.80
2019-02-26T18:57:44.244Z,7.98
2019-02-26T19:00:15.475Z,7.94
2019-02-26T19:02:44.342Z,7.90
2019-02-26T19:05:13.160Z,7.90
2019-02-26T19:07:41.794Z,7.97
2019-02-26T19:10:12.443Z,7.90
2019-02-26T19:12:41.129Z,7.75
2019-02-26T19:15:12.565Z,7.98
2019-02-26T19:17:43.306Z,8.10
2019-02-26T19:20:12.777Z,8.13
2019-02-26T19:22:43.490Z,8.13
2019-02-26T19:25:12.444Z,8.07
2019-02-26T19:27:41.104Z,8.07
2019-02-26T19:30:12.388Z,8.10
2019-02-26T19:32:41.558Z,8.10
2019-02-26T19:35:12.485Z,8.07
2019-02-26T19:37:40.819Z,8.04
2019-02-26T19:40:11.574Z,8.05
2019-02-26T19:42:40.212Z,8.00
2019-02-26T19:45:11.761Z,8.05
2019-02-26T19:47:40.106Z,8.05
2019-02-26T19:50:11.840Z,8.11
2019-02-26T19:52:40.645Z,8.15
2019-02-26T19:55:12.886Z,8.16
2019-02-26T19:57:42.612Z,8.14
2019-02-26T20:00:12.118Z,8.19
2019-02-26T20:02:40.978Z,8.24
2019-02-26T20:05:12.178Z,8.17
2019-02-26T20:07:41.399Z,8.13
2019-02-26T20:10:12.837Z,8.13
2019-02-26T20:12:41.392Z,8.18
2019-02-26T20:15:13.125Z,8.07
2019-02-26T20:17:41.790Z,8.15
2019-02-26T20:20:11.427Z,8.16
2019-02-26T20:22:40.096Z,8.15
2019-02-26T20:25:11.449Z,8.19
2019-02-26T20:27:40.036Z,8.22
2019-02-26T20:30:09.589Z,8.13
2019-02-26T20:32:39.805Z,8.13
2019-02-26T20:35:11.956Z,8.25
2019-02-26T20:37:40.390Z,8.24
2019-02-26T20:40:10.946Z,8.24
2019-02-26T20:42:39.568Z,8.26
2019-02-26T20:45:09.502Z,8.23
2019-02-26T20:47:38.367Z,8.14
2019-02-26T20:50:07.367Z,8.14
2019-02-26T20:52:36.212Z,8.22
2019-02-26T20:55:05.008Z,8.06
2019-02-26T20:57:37.408Z,8.06
2019-02-26T21:00:04.748Z,7.94
2019-02-26T21:02:33.831Z,7.74
2019-02-26T21:05:03.202Z,7.54
2019-02-26T21:07:32.352Z,7.33
2019-02-26T21:10:04.278Z,7.32
2019-02-26T21:12:34.807Z,7.24
2019-02-26T21:15:03.760Z,7.15
2019-02-26T21:17:32.617Z,7.15
2019-02-26T21:20:01.747Z,7.37
2019-02-26T21:22:30.353Z,7.62
2019-02-26T21:24:58.970Z,7.92
2019-02-26T21:27:27.862Z,7.92
2019-02-26T21:29:56.752Z,7.86
2019-02-26T21:32:25.621Z,7.87
2019-02-26T21:34:55.393Z,7.64
2019-02-26T21:37:24.272Z,7.75
2019-02-26T21:39:53.371Z,7.70
2019-02-26T21:42:22.266Z,7.56
2019-02-26T21:44:50.888Z,7.51
2019-02-26T21:47:20.321Z,7.51
2019-02-26T21:49:49.334Z,7.44
2019-02-26T21:52:18.162Z,7.26
2019-02-26T21:54:46.797Z,7.26
2019-02-26T21:57:15.439Z,7.12
2019-02-26T21:59:49.968Z,7.06
2019-02-26T22:02:18.665Z,7.06
2019-02-26T22:04:45.638Z,6.98
2019-02-26T22:07:18.786Z,6.94
2019-02-26T22:09:46.365Z,6.94
2019-02-26T22:12:14.998Z,6.92
2019-02-26T22:14:44.126Z,6.89
2019-02-26T22:17:14.118Z,6.81
2019-02-26T22:19:43.237Z,6.58
2019-02-26T22:22:12.131Z,6.30
2019-02-26T22:24:41.037Z,6.14
2019-02-26T22:27:09.680Z,5.99
2019-02-26T22:29:38.808Z,5.52
2019-02-26T22:32:07.465Z,5.32
2019-02-26T22:34:36.321Z,5.32
2019-02-26T22:37:07.307Z,5.21
2019-02-26T22:39:35.557Z,4.95
2019-02-26T22:42:07.851Z,4.93
2019-02-26T22:44:36.142Z,4.93
2019-02-26T22:47:07.030Z,4.91
2019-02-26T22:49:35.624Z,4.83
2019-02-26T22:52:04.505Z,4.83
2019-02-26T22:54:34.981Z,4.83
2019-02-26T22:57:03.937Z,4.70
2019-02-26T22:59:33.043Z,4.70
2019-02-26T23:02:01.961Z,4.63
2019-02-26T23:04:31.074Z,4.63
2019-02-26T23:06:59.810Z,4.64
2019-02-26T23:09:30.114Z,4.64
2019-02-26T23:11:59.324Z,4.58
2019-02-26T23:14:30.153Z,4.57
2019-02-26T23:16:59.447Z,4.54
2019-02-26T23:19:28.640Z,4.58
2019-02-26T23:21:57.749Z,4.58
2019-02-26T23:24:28.022Z,4.72
2019-02-26T23:26:57.493Z,4.79
2019-02-26T23:29:28.049Z,4.71
2019-02-26T23:31:57.381Z,4.77
2019-02-26T23:34:26.433Z,4.63
2019-02-26T23:36:55.639Z,4.64
2019-02-26T23:39:25.062Z,4.70
2019-02-26T23:41:54.014Z,4.70
2019-02-26T23:44:23.559Z,4.71
2019-02-26T23:46:52.960Z,4.72
2019-02-26T23:49:21.979Z,4.70
2019-02-26T23:51:53.517Z,4.70
2019-02-26T23:54:21.227Z,4.69
2019-02-26T23:56:52.108Z,4.69
2019-02-26T23:59:20.672Z,4.72
